Time;durP1;ratioP1;P1;durP2;ratioP2;P2;SDS_P1;SDS_P2;PMS_P1;PMS_P2;Temp;Humidity;BMP_temperature;BMP_pressure;BME280_temperature;BME280_humidity;BME280_pressure;Samples;Min_cycle;Max_cycle;Signal;HPM_P1;HPM_P2
2022/04/13 00:02:04;;;;;;;4.30;2.97;;;14.40;99.90;;;;;;4991616;28;20452;-84
2022/04/13 00:04:30;;;;;;;4.90;2.27;;;14.50;99.90;;;;;;4991467;28;20272;-85
2022/04/13 00:06:56;;;;;;;3.40;2.47;;;14.40;99.90;;;;;;4991497;28;20193;-86
2022/04/13 00:09:21;;;;;;;5.33;2.60;;;14.30;99.90;;;;;;4991414;28;20186;-85
2022/04/13 00:11:47;;;;;;;4.93;2.40;;;14.30;99.90;;;;;;4991388;28;20209;-85
2022/04/13 00:14:13;;;;;;;5.50;2.90;;;14.20;99.90;;;;;;4991419;28;20217;-85
2022/04/13 00:16:39;;;;;;;6.50;3.07;;;14.20;99.90;;;;;;4991281;28;20206;-84
2022/04/13 00:19:05;;;;;;;4.10;2.40;;;14.20;99.90;;;;;;4991373;28;20632;-85
2022/04/13 00:21:31;;;;;;;5.30;2.93;;;14.20;99.90;;;;;;4991030;28;20544;-85
2022/04/13 00:23:57;;;;;;;4.47;2.83;;;14.20;99.90;;;;;;4991326;28;20519;-84
2022/04/13 00:26:23;;;;;;;3.80;2.07;;;14.20;99.90;;;;;;4990982;28;20199;-85
2022/04/13 00:28:49;;;;;;;4.47;2.40;;;14.20;99.90;;;;;;4991336;28;20192;-85
2022/04/13 00:31:15;;;;;;;6.10;3.47;;;14.20;99.90;;;;;;4991029;28;20548;-84
2022/04/13 00:33:40;;;;;;;3.60;2.50;;;14.20;99.90;;;;;;4997148;28;20181;-84
2022/04/13 00:36:06;;;;;;;4.63;2.77;;;14.00;99.90;;;;;;4997930;28;20601;-84
2022/04/13 00:38:32;;;;;;;7.43;3.00;;;13.90;99.90;;;;;;4997768;28;20192;-84
2022/04/13 00:40:58;;;;;;;5.27;2.37;;;13.90;99.90;;;;;;4997484;28;20181;-85
2022/04/13 00:43:25;;;;;;;5.30;2.70;;;14.00;99.90;;;;;;4981518;28;20725;-85
2022/04/13 00:45:51;;;;;;;5.83;2.60;;;14.10;99.90;;;;;;4997427;28;20425;-84
2022/04/13 00:48:30;;;;;;;5.47;2.53;;;14.10;99.90;;;;;;4997828;28;20632;-85
2022/04/13 00:50:55;;;;;;;8.10;3.10;;;14.10;99.90;;;;;;4997571;28;20420;-85
2022/04/13 00:53:23;;;;;;;4.10;2.87;;;14.20;99.90;;;;;;4997442;28;20849;-85
2022/04/13 00:55:53;;;;;;;4.23;2.47;;;14.10;99.90;;;;;;4997440;28;20216;-85
2022/04/13 00:58:22;;;;;;;4.93;2.80;;;14.10;99.90;;;;;;4997399;28;20459;-85
2022/04/13 01:00:49;;;;;;;4.80;2.67;;;14.20;99.90;;;;;;4997440;28;20423;-85
2022/04/13 01:03:20;;;;;;;5.50;2.37;;;14.20;99.90;;;;;;4997396;28;20437;-85
2022/04/13 01:05:47;;;;;;;5.47;2.87;;;14.30;99.90;;;;;;4997476;28;20428;-84
2022/04/13 01:08:14;;;;;;;4.83;2.60;;;14.20;99.90;;;;;;4997353;28;20417;-84
2022/04/13 01:10:47;;;;;;;5.60;3.03;;;14.10;99.90;;;;;;4997421;28;20930;-85
2022/04/13 01:13:14;;;;;;;4.10;2.87;;;14.00;99.90;;;;;;4997250;28;20502;-85
2022/04/13 01:15:40;;;;;;;5.90;2.47;;;14.00;99.90;;;;;;4997151;28;20471;-85
2022/04/13 01:18:06;;;;;;;6.50;3.10;;;14.10;99.90;;;;;;4997223;28;20482;-85
2022/04/13 01:20:34;;;;;;;5.93;3.37;;;14.20;99.90;;;;;;4997179;28;20445;-84
2022/04/13 01:23:00;;;;;;;4.23;2.30;;;14.30;99.90;;;;;;4997233;28;20849;-85
2022/04/13 01:25:28;;;;;;;6.00;2.97;;;14.30;99.90;;;;;;4997098;28;20959;-85
2022/04/13 01:27:54;;;;;;;5.97;2.60;;;14.30;99.90;;;;;;4997182;28;20432;-85
2022/04/13 01:30:23;;;;;;;4.87;2.70;;;14.30;99.90;;;;;;4997154;28;20853;-85
2022/04/13 01:32:50;;;;;;;12.13;3.13;;;14.30;99.90;;;;;;4997101;28;20539;-85
2022/04/13 01:35:16;;;;;;;3.90;2.57;;;14.30;99.90;;;;;;4997044;28;20520;-85
2022/04/13 01:37:42;;;;;;;4.90;2.40;;;14.30;99.90;;;;;;4997091;28;20528;-84
2022/04/13 01:40:08;;;;;;;4.00;2.50;;;14.20;99.90;;;;;;4996999;28;20609;-84
2022/04/13 01:42:34;;;;;;;4.23;2.70;;;14.20;99.90;;;;;;4997004;28;20243;-84
2022/04/13 01:44:59;;;;;;;5.10;2.63;;;14.20;99.90;;;;;;4994244;28;20452;-85
2022/04/13 01:47:25;;;;;;;7.03;2.80;;;14.20;99.90;;;;;;4994130;28;20663;-84
2022/04/13 01:49:51;;;;;;;5.60;2.90;;;14.20;99.90;;;;;;4993940;28;20186;-84
2022/04/13 01:52:17;;;;;;;5.10;2.53;;;14.20;99.90;;;;;;4993820;28;20233;-84
2022/04/13 01:54:43;;;;;;;4.70;2.50;;;14.20;99.90;;;;;;4993797;28;20457;-84
2022/04/13 01:57:09;;;;;;;4.60;2.87;;;14.20;99.90;;;;;;4993696;28;20182;-84
2022/04/13 01:59:34;;;;;;;4.67;2.70;;;14.20;99.90;;;;;;4993850;28;20217;-84
2022/04/13 02:02:04;;;;;;;6.00;2.90;;;14.10;99.90;;;;;;4993713;28;20202;-85
2022/04/13 02:04:30;;;;;;;6.60;3.47;;;14.00;99.90;;;;;;4993753;28;20186;-84
2022/04/13 02:06:56;;;;;;;4.50;2.77;;;14.00;99.90;;;;;;4993547;28;20477;-85
2022/04/13 02:09:22;;;;;;;4.00;2.60;;;14.00;99.90;;;;;;4993664;28;20852;-85
2022/04/13 02:11:48;;;;;;;3.73;2.87;;;13.90;99.90;;;;;;4993454;28;20979;-85
2022/04/13 02:14:14;;;;;;;4.97;2.80;;;13.90;99.90;;;;;;4993476;28;20221;-85
2022/04/13 02:16:40;;;;;;;4.57;2.77;;;13.80;99.90;;;;;;4993379;28;20276;-84
2022/04/13 02:19:07;;;;;;;6.53;3.00;;;13.80;99.90;;;;;;4993724;28;20425;-85
2022/04/13 02:21:34;;;;;;;5.60;2.97;;;13.80;99.90;;;;;;4993248;28;20833;-84
2022/04/13 02:24:00;;;;;;;3.00;2.43;;;13.70;99.90;;;;;;4993310;28;20428;-84
2022/04/13 02:26:26;;;;;;;5.77;2.90;;;13.70;99.90;;;;;;4993208;28;20828;-84
2022/04/13 02:28:53;;;;;;;3.80;2.80;;;13.60;99.90;;;;;;4993141;28;20604;-84
2022/04/13 02:31:19;;;;;;;3.50;2.70;;;13.60;99.90;;;;;;4993181;28;20447;-85
2022/04/13 02:33:45;;;;;;;3.83;2.60;;;13.60;99.90;;;;;;4992952;28;20527;-85
2022/04/13 02:36:11;;;;;;;4.23;2.83;;;13.60;99.90;;;;;;4993025;28;20432;-85
2022/04/13 02:38:36;;;;;;;4.90;2.90;;;13.50;99.90;;;;;;4992932;28;20425;-85
2022/04/13 02:41:02;;;;;;;4.00;2.47;;;13.50;99.90;;;;;;4992988;28;20194;-85
2022/04/13 02:43:29;;;;;;;5.53;3.10;;;13.40;99.90;;;;;;4992917;28;20558;-85
2022/04/13 02:45:57;;;;;;;7.53;2.47;;;13.40;99.90;;;;;;4993061;28;20221;-84
2022/04/13 02:48:23;;;;;;;4.13;2.90;;;13.20;99.90;;;;;;4992895;28;20544;-85
2022/04/13 02:50:49;;;;;;;6.37;2.80;;;13.00;99.90;;;;;;4992663;28;20429;-84
2022/04/13 02:53:15;;;;;;;5.23;2.73;;;13.00;99.90;;;;;;4992956;28;20447;-85
2022/04/13 02:55:42;;;;;;;4.03;2.40;;;13.00;99.90;;;;;;4992109;28;20461;-85
2022/04/13 02:58:08;;;;;;;4.27;2.67;;;13.00;99.90;;;;;;4992965;28;20459;-84
2022/04/13 03:00:34;;;;;;;5.37;2.83;;;13.10;99.90;;;;;;4992642;28;20881;-84
2022/04/13 03:02:59;;;;;;;4.53;2.67;;;13.10;99.90;;;;;;4992478;28;20202;-85
2022/04/13 03:05:25;;;;;;;4.30;3.17;;;13.10;99.90;;;;;;4992367;28;20568;-84
2022/04/13 03:07:51;;;;;;;3.93;2.67;;;13.00;99.90;;;;;;4992590;28;20544;-84
2022/04/13 03:10:17;;;;;;;4.63;2.73;;;13.00;99.90;;;;;;4992604;28;20212;-84
2022/04/13 03:12:42;;;;;;;5.23;2.90;;;13.00;99.90;;;;;;4992300;28;20747;-84
2022/04/13 03:15:10;;;;;;;3.40;2.40;;;13.00;99.90;;;;;;4992282;28;20325;-84
2022/04/13 03:17:36;;;;;;;6.63;2.50;;;13.00;99.90;;;;;;4992233;28;20654;-84
2022/04/13 03:20:02;;;;;;;3.20;2.20;;;12.90;99.90;;;;;;4992335;28;20429;-84
2022/04/13 03:22:28;;;;;;;5.80;2.80;;;12.90;99.90;;;;;;4991971;28;20232;-84
2022/04/13 03:24:54;;;;;;;5.33;2.80;;;12.80;99.90;;;;;;4992140;28;20515;-84
2022/04/13 03:27:20;;;;;;;5.13;3.10;;;12.80;99.90;;;;;;4991931;28;20224;-84
2022/04/13 03:29:46;;;;;;;7.10;3.20;;;12.80;99.90;;;;;;4992160;28;20464;-84
2022/04/13 03:32:11;;;;;;;4.20;3.03;;;12.70;99.90;;;;;;4991918;28;20443;-84
2022/04/13 03:34:37;;;;;;;4.00;2.50;;;12.60;99.90;;;;;;4992011;28;20456;-84
2022/04/13 03:37:03;;;;;;;5.70;2.73;;;12.70;99.90;;;;;;4991886;28;20189;-84
2022/04/13 03:39:30;;;;;;;4.93;2.50;;;12.80;99.90;;;;;;4991934;28;20186;-84
2022/04/13 03:41:55;;;;;;;3.23;2.40;;;12.70;99.90;;;;;;4991794;28;20499;-84
2022/04/13 03:44:22;;;;;;;5.93;3.13;;;12.70;99.90;;;;;;4988025;28;20867;-84
2022/04/13 03:46:48;;;;;;;4.50;2.77;;;12.70;99.90;;;;;;4991599;28;20490;-84
2022/04/13 03:49:14;;;;;;;5.50;3.20;;;12.80;99.90;;;;;;4991745;28;20926;-85
2022/04/13 03:51:41;;;;;;;5.00;2.63;;;12.80;99.90;;;;;;4991716;28;20441;-84
2022/04/13 03:54:06;;;;;;;6.33;3.00;;;12.80;99.90;;;;;;4988305;28;20505;-84
2022/04/13 03:56:33;;;;;;;9.43;3.47;;;12.90;99.90;;;;;;4972129;28;20469;-84
2022/04/13 03:59:00;;;;;;;5.80;3.63;;;12.90;99.90;;;;;;4972239;28;20182;-84
2022/04/13 04:01:26;;;;;;;5.23;3.17;;;12.90;99.90;;;;;;4972141;28;20845;-84
2022/04/13 04:03:53;;;;;;;4.77;3.40;;;12.90;99.90;;;;;;4972075;28;20433;-84
2022/04/13 04:06:19;;;;;;;5.47;3.20;;;12.90;99.90;;;;;;4971866;28;20433;-84
2022/04/13 04:08:45;;;;;;;4.97;3.47;;;12.90;99.90;;;;;;4971534;28;20422;-84
2022/04/13 04:11:11;;;;;;;4.10;2.83;;;12.90;99.90;;;;;;4971882;28;20418;-85
2022/04/13 04:13:37;;;;;;;4.77;3.20;;;12.80;99.90;;;;;;4971980;28;20464;-84
2022/04/13 04:16:03;;;;;;;9.03;3.00;;;12.80;99.90;;;;;;4971816;28;20516;-85
2022/04/13 04:18:29;;;;;;;4.53;3.50;;;12.70;99.90;;;;;;4971978;28;20290;-84
2022/04/13 04:20:54;;;;;;;5.17;3.30;;;12.50;99.90;;;;;;4971943;28;20520;-84
2022/04/13 04:23:20;;;;;;;5.03;2.77;;;12.60;99.90;;;;;;4971969;28;20238;-84
2022/04/13 04:25:46;;;;;;;4.17;2.70;;;12.60;99.90;;;;;;4971761;28;20183;-84
2022/04/13 04:28:11;;;;;;;4.60;3.20;;;12.50;99.90;;;;;;4971664;28;20438;-84
2022/04/13 04:30:38;;;;;;;5.77;2.90;;;12.60;99.90;;;;;;4971906;28;20217;-85
2022/04/13 04:33:08;;;;;;;4.67;2.60;;;12.60;99.90;;;;;;4971735;28;20217;-84
2022/04/13 04:35:39;;;;;;;4.97;2.80;;;12.60;99.90;;;;;;4971673;28;20476;-84
2022/04/13 04:38:05;;;;;;;4.80;2.90;;;12.70;99.90;;;;;;4971750;28;20421;-84
2022/04/13 04:40:30;;;;;;;4.13;2.80;;;12.70;99.90;;;;;;4971761;28;20919;-84
2022/04/13 04:42:58;;;;;;;6.90;3.23;;;12.70;99.90;;;;;;4971882;28;20464;-84
2022/04/13 04:45:24;;;;;;;4.93;3.03;;;12.70;99.90;;;;;;4971701;28;20190;-84
2022/04/13 04:47:50;;;;;;;4.70;2.90;;;12.80;99.90;;;;;;4971557;28;20806;-84
2022/04/13 04:50:21;;;;;;;11.53;3.40;;;12.80;99.90;;;;;;4971747;28;20429;-84
2022/04/13 04:52:48;;;;;;;6.10;3.00;;;12.80;99.90;;;;;;4972808;28;20442;-84
2022/04/13 04:55:16;;;;;;;7.60;3.80;;;12.80;99.90;;;;;;4971463;28;20978;-85
2022/04/13 04:57:42;;;;;;;5.27;3.53;;;12.80;99.90;;;;;;4971699;28;20452;-84
2022/04/13 05:00:11;;;;;;;9.40;3.70;;;12.90;99.90;;;;;;4971534;28;20914;-84
2022/04/13 05:02:37;;;;;;;9.43;3.67;;;12.90;99.90;;;;;;4971167;28;20973;-84
2022/04/13 05:05:04;;;;;;;5.73;2.73;;;12.90;99.90;;;;;;4971246;28;20433;-84
2022/04/13 05:07:29;;;;;;;5.23;3.13;;;13.00;99.90;;;;;;4971518;28;20484;-84
2022/04/13 05:09:55;;;;;;;5.77;3.00;;;12.90;99.90;;;;;;4971331;28;20434;-84
2022/04/13 05:12:21;;;;;;;6.20;3.40;;;12.90;99.90;;;;;;4971754;28;20217;-84
2022/04/13 05:14:46;;;;;;;4.17;3.50;;;12.90;99.90;;;;;;4971408;28;20206;-84
2022/04/13 05:17:12;;;;;;;7.27;3.40;;;13.00;99.90;;;;;;4971263;28;20225;-84
2022/04/13 05:19:38;;;;;;;7.10;3.10;;;13.10;99.90;;;;;;4974348;28;20725;-84
2022/04/13 05:22:04;;;;;;;4.83;2.90;;;13.20;99.90;;;;;;4974961;28;20218;-85
2022/04/13 05:24:29;;;;;;;6.63;3.13;;;13.20;99.90;;;;;;4974870;28;20217;-84
2022/04/13 05:26:55;;;;;;;5.37;3.10;;;13.30;99.90;;;;;;4974860;28;20307;-84
2022/04/13 05:29:21;;;;;;;8.40;4.10;;;13.30;99.90;;;;;;4974945;28;20233;-84
2022/04/13 05:31:50;;;;;;;7.27;4.83;;;13.40;99.90;;;;;;4974903;28;20206;-85
2022/04/13 05:34:15;;;;;;;5.00;4.00;;;13.40;99.90;;;;;;4975445;28;20461;-84
2022/04/13 05:36:41;;;;;;;7.43;4.07;;;13.50;99.90;;;;;;4976451;28;20488;-83
2022/04/13 05:39:07;;;;;;;8.20;4.47;;;13.50;99.90;;;;;;4974697;28;20190;-83
2022/04/13 05:41:32;;;;;;;7.17;3.90;;;13.60;99.90;;;;;;4974941;28;20210;-83
2022/04/13 05:43:58;;;;;;;4.97;3.47;;;13.70;99.90;;;;;;4974762;28;20186;-83
2022/04/13 05:46:24;;;;;;;6.30;3.50;;;13.70;99.90;;;;;;4974696;28;20322;-84
2022/04/13 05:48:49;;;;;;;5.87;3.70;;;13.80;99.90;;;;;;4974699;28;20656;-83
2022/04/13 05:51:15;;;;;;;7.33;3.20;;;13.90;99.90;;;;;;4974511;28;20249;-83
2022/04/13 05:53:41;;;;;;;6.03;3.23;;;14.00;99.90;;;;;;4974558;28;20190;-83
2022/04/13 05:56:06;;;;;;;9.03;3.53;;;14.00;99.90;;;;;;4974691;28;20671;-83
2022/04/13 05:58:32;;;;;;;5.00;2.93;;;14.00;99.90;;;;;;4975035;28;20204;-83
2022/04/13 06:00:58;;;;;;;6.47;4.13;;;14.10;99.90;;;;;;4974394;28;20214;-83
2022/04/13 06:03:24;;;;;;;6.40;3.77;;;14.10;99.90;;;;;;4974323;28;20179;-83
2022/04/13 06:05:52;;;;;;;5.97;4.30;;;14.20;99.90;;;;;;4974440;28;20772;-83
2022/04/13 06:08:18;;;;;;;6.37;3.73;;;14.20;99.90;;;;;;4974494;28;20433;-84
2022/04/13 06:10:44;;;;;;;8.03;3.70;;;14.20;99.90;;;;;;4974340;28;20436;-83
2022/04/13 06:13:10;;;;;;;6.10;3.47;;;14.30;99.90;;;;;;4974115;28;20238;-83
2022/04/13 06:15:35;;;;;;;4.77;3.73;;;14.30;99.90;;;;;;4974148;28;20210;-83
2022/04/13 06:18:01;;;;;;;6.60;3.87;;;14.40;99.90;;;;;;4974062;28;20265;-83
2022/04/13 06:20:27;;;;;;;7.77;3.80;;;14.60;99.90;;;;;;4973966;28;20675;-83
2022/04/13 06:22:53;;;;;;;7.53;4.40;;;14.70;99.90;;;;;;4974072;28;20644;-83
2022/04/13 06:25:19;;;;;;;7.23;3.80;;;14.80;99.90;;;;;;4973867;28;20877;-83
2022/04/13 06:27:45;;;;;;;8.43;3.87;;;15.00;99.90;;;;;;4973852;28;20190;-83
2022/04/13 06:30:12;;;;;;;7.73;3.13;;;15.10;99.90;;;;;;4972947;28;20429;-83
2022/04/13 06:32:43;;;;;;;8.03;4.30;;;15.30;99.90;;;;;;4973867;28;20446;-84
2022/04/13 06:35:12;;;;;;;10.87;3.83;;;15.40;99.90;;;;;;4974808;28;20461;-83
2022/04/13 06:37:43;;;;;;;11.70;3.67;;;15.60;99.90;;;;;;4973808;28;20434;-83
2022/04/13 06:40:09;;;;;;;6.93;3.40;;;15.90;99.90;;;;;;4973833;28;20807;-82
2022/04/13 06:42:37;;;;;;;6.30;4.27;;;16.00;99.90;;;;;;4973862;28;20456;-83
2022/04/13 06:45:03;;;;;;;5.90;3.53;;;16.10;99.90;;;;;;4973772;28;20493;-83
2022/04/13 06:47:29;;;;;;;6.33;4.30;;;16.20;99.90;;;;;;4973738;28;20424;-83
2022/04/13 06:49:58;;;;;;;5.17;3.53;;;16.40;99.90;;;;;;4973763;28;20438;-83
2022/04/13 06:52:24;;;;;;;5.33;3.40;;;16.50;99.90;;;;;;4973513;28;20261;-83
2022/04/13 06:54:49;;;;;;;5.07;3.87;;;16.70;99.90;;;;;;4973592;28;20457;-84
2022/04/13 06:57:15;;;;;;;6.10;3.30;;;16.90;99.90;;;;;;4973133;28;20186;-83
2022/04/13 06:59:41;;;;;;;5.00;3.43;;;17.20;99.90;;;;;;4973521;28;20691;-83
2022/04/13 07:02:10;;;;;;;4.70;3.27;;;17.40;99.90;;;;;;4973261;28;20563;-84
2022/04/13 07:04:37;;;;;;;5.20;4.10;;;17.70;99.90;;;;;;4973463;28;20194;-83
2022/04/13 07:07:02;;;;;;;6.80;3.50;;;17.70;99.90;;;;;;4972967;28;20486;-83
2022/04/13 07:09:28;;;;;;;7.67;3.47;;;17.70;99.90;;;;;;4973120;28;20855;-83
2022/04/13 07:11:54;;;;;;;7.57;4.10;;;17.90;99.90;;;;;;4973006;28;20209;-83
2022/04/13 07:14:20;;;;;;;8.27;4.13;;;18.00;99.90;;;;;;4982914;28;20465;-83
2022/04/13 07:16:46;;;;;;;5.80;3.80;;;17.80;99.90;;;;;;4988590;28;20194;-84
2022/04/13 07:19:12;;;;;;;9.37;3.90;;;17.80;99.90;;;;;;4974258;28;20193;-84
2022/04/13 07:21:37;;;;;;;7.97;4.00;;;17.90;99.90;;;;;;4988440;28;20461;-84
2022/04/13 07:24:03;;;;;;;8.63;4.30;;;18.00;99.90;;;;;;4988882;28;20197;-83
2022/04/13 07:26:29;;;;;;;8.93;4.93;;;18.10;99.90;;;;;;4988632;28;20237;-83
2022/04/13 07:28:55;;;;;;;7.37;4.53;;;18.20;99.90;;;;;;4988637;28;20433;-83
2022/04/13 07:31:20;;;;;;;8.13;4.60;;;18.20;99.90;;;;;;4988805;28;20219;-83
2022/04/13 07:33:46;;;;;;;7.63;4.50;;;18.30;99.90;;;;;;4973508;28;20210;-83
2022/04/13 07:36:12;;;;;;;5.60;4.07;;;18.40;99.90;;;;;;4988514;28;20185;-84
2022/04/13 07:38:38;;;;;;;6.50;3.67;;;18.50;99.90;;;;;;4988801;28;20186;-83
2022/04/13 07:41:04;;;;;;;7.20;4.53;;;18.50;99.90;;;;;;4988720;28;20178;-84
2022/04/13 07:43:31;;;;;;;5.93;3.87;;;18.50;99.90;;;;;;5001307;28;20498;-83
2022/04/13 07:45:57;;;;;;;11.00;4.53;;;18.30;99.90;;;;;;4997353;28;20444;-83
2022/04/13 07:48:23;;;;;;;8.20;4.13;;;18.50;99.90;;;;;;4991762;28;20425;-83
2022/04/13 07:50:49;;;;;;;8.10;4.80;;;18.50;99.90;;;;;;4991577;28;20610;-84
2022/04/13 07:53:15;;;;;;;8.37;4.00;;;18.60;99.90;;;;;;4991834;28;20244;-84
2022/04/13 07:55:41;;;;;;;5.50;3.87;;;18.90;99.90;;;;;;4991845;28;20464;-84
2022/04/13 07:58:07;;;;;;;8.70;5.60;;;19.10;99.90;;;;;;4991409;28;20429;-84
2022/04/13 08:00:33;;;;;;;6.83;4.33;;;19.40;99.90;;;;;;4991484;28;20623;-83
2022/04/13 08:02:59;;;;;;;6.30;3.77;;;19.40;99.90;;;;;;4991379;28;20440;-86
2022/04/13 08:05:25;;;;;;;6.30;4.00;;;19.50;99.90;;;;;;4991425;28;20830;-85
2022/04/13 08:07:51;;;;;;;6.20;4.90;;;19.50;99.90;;;;;;4991578;28;20207;-85
2022/04/13 08:10:17;;;;;;;5.90;3.40;;;19.40;99.90;;;;;;4991148;28;20523;-84
2022/04/13 08:12:46;;;;;;;4.57;3.70;;;19.40;99.90;;;;;;4991269;28;20297;-83
2022/04/13 08:15:13;;;;;;;11.03;5.00;;;19.40;99.90;;;;;;4990053;28;20214;-85
2022/04/13 08:17:40;;;;;;;7.00;4.73;;;19.60;99.90;;;;;;4988258;28;20437;-84
2022/04/13 08:20:14;;;;;;;8.13;4.73;;;19.50;99.90;;;;;;4983781;28;20451;-83
2022/04/13 08:22:40;;;;;;;7.27;4.07;;;19.50;99.90;;;;;;4983175;28;20465;-85
2022/04/13 08:25:06;;;;;;;6.33;4.10;;;19.70;99.90;;;;;;4990886;28;20421;-85
2022/04/13 08:27:31;;;;;;;9.03;4.40;;;19.80;99.90;;;;;;4986134;28;20452;-85
2022/04/13 08:29:57;;;;;;;8.10;4.43;;;20.00;99.90;;;;;;4992063;28;20458;-83
2022/04/13 08:32:23;;;;;;;6.47;4.90;;;20.10;99.90;;;;;;4990755;28;20225;-83
2022/04/13 08:34:53;;;;;;;5.80;4.27;;;20.20;99.90;;;;;;4990566;28;20217;-83
2022/04/13 08:37:20;;;;;;;6.40;4.67;;;20.40;99.90;;;;;;4990607;28;20424;-84
2022/04/13 08:39:46;;;;;;;5.60;4.37;;;20.60;99.90;;;;;;4991114;28;20797;-85
2022/04/13 08:42:14;;;;;;;8.20;4.10;;;20.60;99.90;;;;;;4990913;28;20437;-85
2022/04/13 08:44:45;;;;;;;6.67;4.63;;;20.90;99.90;;;;;;4990868;28;20243;-86
2022/04/13 08:47:15;;;;;;;10.37;5.60;;;20.90;99.90;;;;;;4990393;28;20429;-85
2022/04/13 08:49:43;;;;;;;8.53;5.17;;;21.90;99.90;;;;;;4987100;28;20433;-86
2022/04/13 08:52:12;;;;;;;11.20;4.90;;;23.10;99.90;;;;;;4990641;28;20950;-86
2022/04/13 08:55:00;;;;;;;10.03;5.30;;;24.50;99.90;;;;;;4973977;28;20469;-85
2022/04/13 08:57:29;;;;;;;9.70;5.07;;;26.00;99.90;;;;;;4982105;28;20455;-86
2022/04/13 09:00:08;;;;;;;8.87;5.67;;;27.30;99.90;;;;;;5013773;28;20459;-86
2022/04/13 09:02:52;;;;;;;7.53;4.60;;;28.10;96.80;;;;;;5014165;28;20505;-86
2022/04/13 09:05:23;;;;;;;6.50;4.27;;;29.10;91.60;;;;;;5014112;28;20423;-86
2022/04/13 09:08:05;;;;;;;6.90;4.50;;;30.10;81.80;;;;;;5014079;28;20434;-86
2022/04/13 09:10:31;;;;;;;8.10;5.47;;;31.20;78.40;;;;;;5014024;28;20777;-86
2022/04/13 09:12:58;;;;;;;7.03;5.13;;;32.20;67.00;;;;;;5013695;28;20454;-87
2022/04/13 09:15:25;;;;;;;6.50;4.73;;;32.70;59.80;;;;;;5013388;28;20521;-86
2022/04/13 09:17:50;;;;;;;8.70;5.17;;;33.40;56.90;;;;;;5013827;28;20447;-86
2022/04/13 09:20:16;;;;;;;6.00;4.67;;;34.10;55.80;;;;;;5013588;28;20928;-87
2022/04/13 09:22:43;;;;;;;6.60;4.70;;;34.10;52.60;;;;;;5013969;28;20204;-87
2022/04/13 09:25:10;;;;;;;7.43;5.30;;;33.70;51.40;;;;;;5013396;28;20268;-87
2022/04/13 09:27:37;;;;;;;10.23;5.43;;;33.50;50.00;;;;;;5013679;28;20799;-87
2022/04/13 09:30:05;;;;;;;6.90;4.83;;;33.20;49.00;;;;;;5013593;28;20507;-87
2022/04/13 09:32:31;;;;;;;7.80;5.23;;;33.10;49.80;;;;;;5013559;28;20455;-86
2022/04/13 09:34:59;;;;;;;8.80;5.30;;;32.90;49.50;;;;;;5013610;28;20554;-86
2022/04/13 09:37:25;;;;;;;8.00;5.93;;;31.80;50.10;;;;;;5013051;28;20449;-87
2022/04/13 09:39:52;;;;;;;12.00;5.53;;;31.20;50.80;;;;;;5013578;28;20420;-86
2022/04/13 09:42:19;;;;;;;9.03;5.90;;;30.40;52.70;;;;;;5013185;28;20440;-86
2022/04/13 09:44:54;;;;;;;6.50;5.80;;;;;;;;;;5013484;28;20461;-86
2022/04/13 09:47:20;;;;;;;10.83;6.10;;;28.80;55.10;;;;;;5012892;28;20481;-88
2022/04/13 09:49:47;;;;;;;8.17;5.47;;;27.80;57.40;;;;;;5012851;28;20416;-86
2022/04/13 09:52:15;;;;;;;6.60;5.43;;;27.10;59.40;;;;;;5013139;28;20212;-86
2022/04/13 09:54:48;;;;;;;7.83;6.50;;;26.40;63.40;;;;;;5007183;28;21008;-86
2022/04/13 09:57:25;;;;;;;7.00;5.90;;;26.10;70.00;;;;;;4992704;28;20807;-86
2022/04/13 09:59:58;;;;;;;8.20;5.57;;;25.90;73.30;;;;;;4993787;28;20571;-86
2022/04/13 10:02:39;;;;;;;10.23;6.10;;;26.10;77.90;;;;;;4993243;28;20444;-87
2022/04/13 10:05:19;;;;;;;8.17;4.83;;;27.20;75.90;;;;;;4992581;28;20930;-85
2022/04/13 10:07:45;;;;;;;7.00;5.40;;;28.00;73.70;;;;;;4993333;28;20519;-86
2022/04/13 10:10:24;;;;;;;8.53;5.00;;;29.40;70.00;;;;;;4993680;28;21006;-86
2022/04/13 10:12:50;;;;;;;8.20;5.30;;;31.40;63.30;;;;;;4993395;28;20243;-86
2022/04/13 10:15:16;;;;;;;6.43;4.80;;;32.20;57.90;;;;;;4993357;28;20548;-86
2022/04/13 10:17:42;;;;;;;7.77;5.13;;;31.90;55.50;;;;;;4993132;28;20599;-87
2022/04/13 10:20:08;;;;;;;8.83;5.80;;;31.30;56.20;;;;;;4993232;28;20417;-87
2022/04/13 10:22:34;;;;;;;8.50;5.70;;;33.30;55.30;;;;;;4993282;28;20441;-87
2022/04/13 10:25:25;;;;;;;6.20;4.50;;;33.80;52.90;;;;;;4993283;28;20189;-87
2022/04/13 10:27:55;;;;;;;5.93;4.70;;;34.90;50.70;;;;;;4993103;28;20782;-87
2022/04/13 10:30:26;;;;;;;7.50;5.13;;;35.80;47.40;;;;;;4993156;28;20440;-87
2022/04/13 10:33:05;;;;;;;8.87;5.70;;;34.50;47.00;;;;;;4992994;28;20543;-87
2022/04/13 10:35:33;;;;;;;6.53;5.37;;;34.50;46.80;;;;;;4992941;28;20464;-87
2022/04/13 10:37:59;;;;;;;7.10;5.40;;;36.00;46.60;;;;;;4992777;28;20429;-87
2022/04/13 10:40:30;;;;;;;6.63;5.20;;;36.40;43.40;;;;;;4992962;28;20432;-88
2022/04/13 10:42:59;;;;;;;5.27;4.07;;;36.70;43.50;;;;;;4992680;28;20938;-88
2022/04/13 10:45:27;;;;;;;7.13;4.23;;;38.40;42.80;;;;;;4992890;28;20516;-87
2022/04/13 10:48:08;;;;;;;6.20;3.30;;;39.60;40.20;;;;;;4992503;28;20948;-87
2022/04/13 10:50:36;;;;;;;6.23;3.43;;;40.00;37.50;;;;;;4993094;28;20424;-88
2022/04/13 10:53:05;;;;;;;5.00;3.27;;;40.00;36.40;;;;;;4992260;28;20453;-88
2022/04/13 10:55:34;;;;;;;6.20;3.03;;;38.80;36.20;;;;;;5008134;28;20463;-88
2022/04/13 10:58:41;;;;;;;4.30;3.23;;;37.50;35.50;;;;;;4992760;28;20508;-91
2022/04/13 11:01:11;;;;;;;4.10;2.50;;;38.10;36.40;;;;;;4913590;28;20433;-88
2022/04/13 11:03:38;;;;;;;3.40;2.60;;;36.30;36.70;;;;;;4992458;28;20409;-88
2022/04/13 11:06:08;;;;;;;3.77;2.70;;;35.20;37.00;;;;;;4992011;28;20412;-87
2022/04/13 11:08:46;;;;;;;5.03;2.80;;;33.40;38.30;;;;;;4992225;28;20413;-88
2022/04/13 11:11:21;;;;;;;3.63;2.30;;;31.80;40.90;;;;;;4992422;28;20417;-86
2022/04/13 11:13:51;;;;;;;4.13;2.53;;;30.50;42.60;;;;;;4992276;28;20413;-86
2022/04/13 11:16:18;;;;;;;5.30;3.00;;;30.00;44.70;;;;;;4991582;28;20440;-87
2022/04/13 11:19:05;;;;;;;5.40;3.00;;;29.70;45.80;;;;;;4992114;28;20520;-86
2022/04/13 11:21:31;;;;;;;6.90;2.80;;;29.40;46.20;;;;;;4991820;28;20495;-86
2022/04/13 11:23:57;;;;;;;5.83;3.33;;;29.50;47.70;;;;;;4992428;28;20456;-85
2022/04/13 11:26:34;;;;;;;5.23;3.03;;;29.70;48.60;;;;;;4991546;28;20421;-86
2022/04/13 11:29:16;;;;;;;4.47;3.50;;;29.60;47.80;;;;;;4985960;28;20436;-85
2022/04/13 11:32:04;;;;;;;4.00;3.10;;;30.70;49.00;;;;;;4984535;28;20500;-86
2022/04/13 11:34:37;;;;;;;5.60;3.30;;;30.90;48.50;;;;;;4989379;28;20468;-86
2022/04/13 11:37:05;;;;;;;6.43;4.20;;;31.60;48.50;;;;;;4981726;28;20441;-86
2022/04/13 11:39:50;;;;;;;6.90;4.70;;;32.10;47.50;;;;;;4992091;28;20417;-86
2022/04/13 11:42:28;;;;;;;7.90;5.63;;;32.40;45.60;;;;;;4991329;28;20428;-86
2022/04/13 11:45:16;;;;;;;8.10;5.20;;;31.30;46.40;;;;;;4987658;28;20532;-87
2022/04/13 11:47:53;;;;;;;7.70;4.70;;;30.00;48.00;;;;;;4991321;28;20415;-87
2022/04/13 11:50:21;;;;;;;8.77;5.40;;;29.30;49.20;;;;;;4991572;28;20502;-87
2022/04/13 11:53:09;;;;;;;7.30;5.10;;;28.30;50.90;;;;;;4991414;28;20472;-87
2022/04/13 11:55:41;;;;;;;6.27;5.63;;;27.90;52.90;;;;;;4990471;28;20452;-87
2022/04/13 11:58:09;;;;;;;10.00;5.73;;;27.80;53.40;;;;;;4991306;28;20796;-87
2022/04/13 12:00:52;;;;;;;8.07;5.07;;;27.70;54.90;;;;;;4991041;28;20567;-87
2022/04/13 12:03:32;;;;;;;8.17;6.00;;;27.70;56.90;;;;;;4991233;28;20490;-86
2022/04/13 12:06:22;;;;;;;8.10;5.40;;;27.60;57.00;;;;;;4990992;28;20427;-86
2022/04/13 12:08:53;;;;;;;10.83;6.37;;;28.20;58.30;;;;;;4991107;28;20431;-87
2022/04/13 12:11:43;;;;;;;8.27;6.63;;;28.40;58.20;;;;;;4991159;28;20498;-86
2022/04/13 12:14:10;;;;;;;7.70;5.30;;;28.90;56.90;;;;;;4991055;28;20428;-87
2022/04/13 12:16:38;;;;;;;7.37;5.70;;;29.70;57.10;;;;;;4990580;28;20421;-87
2022/04/13 12:19:11;;;;;;;6.30;4.50;;;30.00;53.80;;;;;;4990945;28;20475;-87
2022/04/13 12:21:40;;;;;;;7.73;5.20;;;30.80;53.10;;;;;;4990731;28;20448;-87
2022/04/13 12:24:10;;;;;;;6.90;4.13;;;32.30;51.70;;;;;;4991228;28;20799;-87
2022/04/13 12:26:37;;;;;;;5.77;3.80;;;33.40;49.20;;;;;;4990536;28;20425;-87
2022/04/13 12:29:20;;;;;;;5.27;3.70;;;33.50;47.40;;;;;;4989909;28;20421;-87
2022/04/13 12:31:56;;;;;;;4.60;3.40;;;34.30;47.20;;;;;;4990455;28;20448;-87
2022/04/13 12:34:24;;;;;;;4.80;3.80;;;34.20;45.20;;;;;;4989775;28;20460;-87
2022/04/13 12:36:50;;;;;;;4.10;3.20;;;35.70;45.30;;;;;;4990840;28;20485;-87
2022/04/13 12:39:16;;;;;;;6.57;3.30;;;34.60;42.10;;;;;;4990818;28;20421;-87
2022/04/13 12:41:42;;;;;;;5.27;3.27;;;33.30;44.60;;;;;;4990660;28;20437;-87
2022/04/13 12:44:08;;;;;;;6.40;3.30;;;32.20;46.20;;;;;;4990202;28;20178;-87
2022/04/13 12:46:34;;;;;;;5.33;3.50;;;31.20;46.60;;;;;;4990592;28;20177;-87
2022/04/13 12:49:05;;;;;;;7.57;4.67;;;30.20;48.80;;;;;;4990818;28;20651;-87
2022/04/13 12:51:36;;;;;;;5.73;3.43;;;29.00;51.20;;;;;;4984060;28;20214;-87